Time;durP1;ratioP1;P1;durP2;ratioP2;P2;SDS_P1;SDS_P2;PMS_P1;PMS_P2;Temp;Humidity;BMP_temperature;BMP_pressure;BME280_temperature;BME280_humidity;BME280_pressure;Samples;Min_cycle;Max_cycle;Signal;HPM_P1;HPM_P2
2021/07/08 00:01:00;;;;;;;4.68;1.65;;;17.60;99.90;;;;;;4961121;28;20027;-83
2021/07/08 00:03:26;;;;;;;2.70;1.17;;;17.60;99.90;;;;;;4979006;28;20077;-83
2021/07/08 00:05:53;;;;;;;2.65;1.10;;;17.60;99.90;;;;;;4995406;28;20113;-84
2021/07/08 00:08:19;;;;;;;2.80;1.17;;;17.60;99.90;;;;;;4979780;28;20030;-84
2021/07/08 00:10:50;;;;;;;2.72;1.10;;;17.60;99.90;;;;;;4979851;28;20637;-83
2021/07/08 00:13:17;;;;;;;2.67;1.23;;;17.60;99.90;;;;;;4960549;28;20023;-82
2021/07/08 00:15:43;;;;;;;2.88;1.30;;;17.60;99.90;;;;;;4978178;28;20019;-83
2021/07/08 00:18:11;;;;;;;4.95;1.10;;;17.60;99.90;;;;;;4959809;28;20042;-83
2021/07/08 00:20:39;;;;;;;2.90;1.20;;;17.60;99.90;;;;;;4975830;28;20160;-82
2021/07/08 00:23:05;;;;;;;2.08;1.05;;;17.60;99.90;;;;;;4976078;28;20053;-82
2021/07/08 00:25:31;;;;;;;2.28;1.10;;;17.50;99.90;;;;;;4989508;28;20025;-81
2021/07/08 00:27:58;;;;;;;6.75;1.23;;;17.60;99.90;;;;;;4996241;28;20041;-82
2021/07/08 00:30:24;;;;;;;2.15;1.20;;;17.60;99.90;;;;;;4984643;28;20058;-82
2021/07/08 00:32:50;;;;;;;2.80;1.13;;;17.60;99.90;;;;;;4959217;28;20027;-82
2021/07/08 00:35:17;;;;;;;3.35;1.17;;;17.60;99.90;;;;;;4977074;28;20066;-82
2021/07/08 00:37:44;;;;;;;2.33;1.20;;;17.60;99.90;;;;;;4976577;28;20041;-83
2021/07/08 00:40:12;;;;;;;2.55;1.00;;;17.70;99.90;;;;;;4958313;28;20034;-83
2021/07/08 00:42:39;;;;;;;2.45;1.08;;;17.60;99.90;;;;;;4976338;28;20171;-83
2021/07/08 00:45:07;;;;;;;1.90;0.95;;;17.60;99.90;;;;;;4976348;28;20033;-83
2021/07/08 00:47:33;;;;;;;1.80;0.90;;;17.60;99.90;;;;;;4976431;28;20067;-82
2021/07/08 00:49:59;;;;;;;2.88;1.23;;;17.60;99.90;;;;;;4976612;28;20031;-82
2021/07/08 00:52:25;;;;;;;2.70;1.20;;;17.50;99.90;;;;;;4976804;28;20154;-83
2021/07/08 00:54:50;;;;;;;3.33;1.70;;;17.50;99.90;;;;;;4976170;28;20023;-83
2021/07/08 00:57:16;;;;;;;3.47;1.40;;;17.50;99.90;;;;;;4977299;28;20023;-83
2021/07/08 00:59:46;;;;;;;4.90;1.73;;;17.50;99.90;;;;;;4974773;28;20030;-83
2021/07/08 01:02:13;;;;;;;5.65;1.58;;;17.50;99.90;;;;;;4975639;28;20031;-83
2021/07/08 01:04:43;;;;;;;3.42;1.88;;;17.50;99.90;;;;;;4986032;28;20102;-83
2021/07/08 01:07:11;;;;;;;3.08;1.45;;;17.40;99.90;;;;;;4970265;28;20045;-83
2021/07/08 01:09:37;;;;;;;2.35;1.30;;;17.40;99.90;;;;;;4978300;28;20027;-84
2021/07/08 01:12:03;;;;;;;3.80;1.40;;;17.40;99.90;;;;;;4961063;28;20516;-83
2021/07/08 01:14:28;;;;;;;4.43;1.65;;;17.40;99.90;;;;;;4977931;28;20054;-82
2021/07/08 01:16:54;;;;;;;5.00;1.58;;;17.30;99.90;;;;;;4977740;28;20125;-83
2021/07/08 01:19:20;;;;;;;3.05;1.27;;;17.30;99.90;;;;;;4974416;28;20034;-83
2021/07/08 01:21:45;;;;;;;2.47;1.20;;;17.30;99.90;;;;;;4975582;28;20129;-83
2021/07/08 01:24:11;;;;;;;3.38;1.38;;;17.40;99.90;;;;;;4961491;28;20376;-83
2021/07/08 01:26:40;;;;;;;3.13;1.30;;;17.30;99.90;;;;;;4995185;28;20117;-83
2021/07/08 01:29:07;;;;;;;3.13;1.30;;;17.30;99.90;;;;;;4978838;28;20029;-83
2021/07/08 01:31:33;;;;;;;3.72;1.35;;;17.30;99.90;;;;;;4976375;28;20030;-83
2021/07/08 01:33:58;;;;;;;3.58;1.30;;;17.30;99.90;;;;;;4975109;28;20037;-82
2021/07/08 01:36:24;;;;;;;2.55;1.10;;;17.30;99.90;;;;;;4976148;28;20113;-82
2021/07/08 01:38:50;;;;;;;2.90;1.30;;;17.40;99.90;;;;;;4973548;28;20039;-83
2021/07/08 01:41:16;;;;;;;2.25;1.00;;;17.40;99.90;;;;;;4975271;28;20028;-82
2021/07/08 01:43:42;;;;;;;2.05;1.20;;;17.40;99.90;;;;;;4976206;28;20488;-82
2021/07/08 01:46:16;;;;;;;3.45;1.45;;;17.30;99.90;;;;;;4959037;28;20066;-81
2021/07/08 01:48:43;;;;;;;2.75;1.27;;;17.30;99.90;;;;;;5022277;23;20042;-81
2021/07/08 01:51:21;;;;;;;2.67;1.20;;;17.20;99.90;;;;;;5007960;28;20481;-82
2021/07/08 01:53:47;;;;;;;3.75;1.58;;;17.20;99.90;;;;;;4978642;28;20484;-82
2021/07/08 01:56:13;;;;;;;3.83;1.88;;;17.20;99.90;;;;;;5001669;28;20200;-81
2021/07/08 01:58:38;;;;;;;4.45;1.50;;;17.10;99.90;;;;;;5006754;28;20018;-81
2021/07/08 02:01:04;;;;;;;3.28;1.25;;;17.20;99.90;;;;;;5015518;28;20406;-81
2021/07/08 02:03:30;;;;;;;4.65;1.35;;;17.10;99.90;;;;;;5006814;28;20528;-81
2021/07/08 02:05:55;;;;;;;2.92;1.40;;;17.10;99.90;;;;;;4997954;28;20105;-82
2021/07/08 02:08:21;;;;;;;3.03;1.50;;;17.00;99.90;;;;;;4982680;28;20021;-81
2021/07/08 02:10:47;;;;;;;2.60;1.35;;;17.00;99.90;;;;;;4997950;28;20036;-80
2021/07/08 02:13:12;;;;;;;3.08;1.50;;;17.00;99.90;;;;;;5012207;28;20033;-82
2021/07/08 02:15:38;;;;;;;3.15;1.40;;;16.90;99.90;;;;;;5015949;28;20025;-82
2021/07/08 02:18:04;;;;;;;3.17;1.60;;;17.00;99.90;;;;;;4997850;28;20030;-80
2021/07/08 02:20:30;;;;;;;2.78;1.30;;;16.90;99.90;;;;;;5015586;28;20034;-81
2021/07/08 02:22:56;;;;;;;2.85;1.35;;;16.90;99.90;;;;;;4996483;28;20042;-82
2021/07/08 02:25:21;;;;;;;2.08;1.20;;;16.90;99.90;;;;;;4995381;28;20023;-82
2021/07/08 02:27:48;;;;;;;5.35;1.30;;;16.90;99.90;;;;;;4995224;28;20030;-81
2021/07/08 02:30:19;;;;;;;2.97;1.40;;;16.90;99.90;;;;;;4994366;28;20035;-81
2021/07/08 02:32:48;;;;;;;3.05;1.40;;;16.90;99.90;;;;;;4995517;28;20033;-82
2021/07/08 02:35:15;;;;;;;4.63;1.13;;;16.90;99.90;;;;;;4993495;28;20092;-81
2021/07/08 02:37:41;;;;;;;3.58;1.50;;;16.80;99.90;;;;;;4995805;28;20023;-82
2021/07/08 02:40:11;;;;;;;3.45;1.83;;;16.90;99.90;;;;;;4989311;28;20026;-81
2021/07/08 02:42:38;;;;;;;5.57;1.90;;;16.90;99.90;;;;;;4974585;28;20121;-81
2021/07/08 02:45:06;;;;;;;3.70;1.70;;;16.80;99.90;;;;;;4974662;28;20115;-81
2021/07/08 02:47:32;;;;;;;3.67;1.77;;;16.80;99.90;;;;;;4983424;28;20030;-80
2021/07/08 02:49:57;;;;;;;2.63;1.55;;;16.80;99.90;;;;;;4997087;28;20429;-79
2021/07/08 02:52:23;;;;;;;3.13;1.70;;;16.80;99.90;;;;;;4980498;28;20026;-82
2021/07/08 02:54:48;;;;;;;3.10;1.58;;;16.90;99.90;;;;;;4998900;28;20030;-82
2021/07/08 02:57:14;;;;;;;3.60;1.60;;;16.90;99.90;;;;;;4998447;28;20031;-82
2021/07/08 02:59:40;;;;;;;5.53;1.65;;;16.90;99.90;;;;;;4997099;28;20053;-80
2021/07/08 03:02:05;;;;;;;4.65;1.70;;;17.00;99.90;;;;;;4997622;28;20438;-82
2021/07/08 03:04:31;;;;;;;3.40;1.67;;;16.90;99.90;;;;;;4998177;28;20034;-82
2021/07/08 03:06:57;;;;;;;3.70;1.70;;;16.80;99.90;;;;;;4998051;28;20409;-82
2021/07/08 03:09:22;;;;;;;3.33;1.67;;;16.80;99.90;;;;;;4997260;28;20053;-81
2021/07/08 03:11:48;;;;;;;3.22;1.95;;;16.80;99.90;;;;;;4999174;28;20037;-80
2021/07/08 03:14:14;;;;;;;2.78;1.48;;;16.80;99.90;;;;;;5008425;28;20034;-80
2021/07/08 03:16:40;;;;;;;4.85;1.77;;;16.80;99.90;;;;;;4998351;28;20026;-82
2021/07/08 03:19:05;;;;;;;3.10;1.58;;;16.80;99.90;;;;;;4996796;28;20092;-82
2021/07/08 03:21:31;;;;;;;6.32;1.60;;;16.80;99.90;;;;;;4997022;28;20137;-83
2021/07/08 03:23:56;;;;;;;2.72;1.65;;;16.80;99.90;;;;;;4997983;28;20030;-81
2021/07/08 03:26:22;;;;;;;3.55;1.38;;;16.80;99.90;;;;;;4998367;28;20038;-83
2021/07/08 03:28:48;;;;;;;3.10;1.73;;;16.70;99.90;;;;;;4998304;28;20033;-82
2021/07/08 03:31:14;;;;;;;3.67;1.80;;;16.70;99.90;;;;;;4997370;28;20492;-83
2021/07/08 03:33:40;;;;;;;2.92;1.70;;;16.70;99.90;;;;;;4998664;28;20015;-83
2021/07/08 03:36:06;;;;;;;3.40;1.80;;;16.70;99.90;;;;;;4980518;28;20037;-82
2021/07/08 03:38:32;;;;;;;4.60;2.00;;;16.70;99.90;;;;;;4995894;28;20026;-82
2021/07/08 03:40:58;;;;;;;3.90;2.58;;;16.70;99.90;;;;;;4998411;28;20034;-82
2021/07/08 03:43:24;;;;;;;4.90;2.20;;;16.70;99.90;;;;;;4998311;28;20022;-83
2021/07/08 03:45:49;;;;;;;4.25;2.47;;;16.80;99.90;;;;;;4980486;28;20057;-82
2021/07/08 03:48:16;;;;;;;5.43;2.45;;;16.70;99.90;;;;;;4997267;28;20073;-82
2021/07/08 03:50:41;;;;;;;6.15;2.67;;;16.70;99.90;;;;;;4997679;28;20098;-81
2021/07/08 03:53:07;;;;;;;6.28;2.40;;;16.70;99.90;;;;;;4980683;28;20101;-81
2021/07/08 03:55:33;;;;;;;6.32;2.72;;;16.70;99.90;;;;;;4998927;28;20040;-83
2021/07/08 03:57:58;;;;;;;4.07;2.70;;;16.70;99.90;;;;;;4996557;28;20031;-82
2021/07/08 04:00:34;;;;;;;5.18;2.30;;;16.70;99.90;;;;;;4994370;28;20026;-83
2021/07/08 04:03:09;;;;;;;4.07;2.42;;;16.70;99.90;;;;;;4991573;28;20028;-81
2021/07/08 04:05:35;;;;;;;7.13;2.67;;;16.70;99.90;;;;;;4991050;28;20054;-83
2021/07/08 04:08:03;;;;;;;4.03;2.35;;;16.70;99.90;;;;;;4996934;28;20094;-83
2021/07/08 04:10:29;;;;;;;4.68;2.50;;;16.70;99.90;;;;;;4997934;28;20030;-83
2021/07/08 04:12:54;;;;;;;4.43;2.40;;;16.60;99.90;;;;;;4999669;28;20044;-83
2021/07/08 04:15:21;;;;;;;4.95;2.25;;;16.70;99.90;;;;;;4986878;28;20027;-81
2021/07/08 04:17:47;;;;;;;5.15;2.50;;;16.60;99.90;;;;;;4993452;28;20042;-79
2021/07/08 04:20:18;;;;;;;4.53;2.22;;;16.50;99.90;;;;;;4992034;28;20026;-84
2021/07/08 04:22:45;;;;;;;4.18;2.47;;;16.70;99.90;;;;;;4995247;28;20057;-82
2021/07/08 04:25:13;;;;;;;6.47;2.80;;;16.70;99.90;;;;;;4996860;28;20026;-81
2021/07/08 04:27:39;;;;;;;5.97;2.42;;;16.70;99.90;;;;;;4994742;28;20018;-83
2021/07/08 04:30:07;;;;;;;4.28;2.50;;;16.70;99.90;;;;;;4996434;28;20384;-82
2021/07/08 04:32:33;;;;;;;7.22;2.58;;;16.70;99.90;;;;;;4975935;28;20569;-82
2021/07/08 04:34:59;;;;;;;5.82;3.03;;;16.70;99.90;;;;;;4996202;28;20030;-82
2021/07/08 04:37:25;;;;;;;5.25;2.60;;;16.70;99.90;;;;;;4976445;28;20504;-82
2021/07/08 04:39:52;;;;;;;6.22;3.00;;;16.80;99.90;;;;;;4994420;28;20026;-80
2021/07/08 04:42:18;;;;;;;6.72;3.30;;;16.70;99.90;;;;;;4996449;28;20057;-83
2021/07/08 04:44:45;;;;;;;5.32;3.00;;;16.70;99.90;;;;;;4995510;28;20037;-84
2021/07/08 04:47:11;;;;;;;7.32;3.30;;;16.70;99.90;;;;;;4977014;28;20113;-82
2021/07/08 04:49:37;;;;;;;4.32;2.83;;;16.70;99.90;;;;;;4993202;28;20058;-82
2021/07/08 04:52:04;;;;;;;8.20;3.38;;;16.70;99.90;;;;;;4995810;28;20029;-82
2021/07/08 04:54:30;;;;;;;8.05;4.00;;;16.70;99.90;;;;;;4972348;28;20488;-83
2021/07/08 04:56:57;;;;;;;4.35;2.55;;;16.70;99.90;;;;;;4982499;28;20050;-81
2021/07/08 04:59:22;;;;;;;7.00;3.30;;;16.80;99.90;;;;;;4992533;28;20086;-82
2021/07/08 05:01:48;;;;;;;5.28;3.13;;;16.80;99.90;;;;;;4978246;28;20183;-83
2021/07/08 05:04:13;;;;;;;7.50;3.38;;;16.90;99.90;;;;;;4994374;28;20104;-80
2021/07/08 05:06:39;;;;;;;4.70;2.60;;;16.90;99.90;;;;;;4983357;28;20684;-79
2021/07/08 05:09:07;;;;;;;4.80;2.78;;;16.90;99.90;;;;;;4985579;28;20041;-82
2021/07/08 05:11:33;;;;;;;6.25;2.95;;;16.90;99.90;;;;;;4992786;28;20030;-80
2021/07/08 05:13:58;;;;;;;4.45;2.75;;;16.90;99.90;;;;;;4995426;28;20145;-82
2021/07/08 05:16:24;;;;;;;6.95;3.55;;;17.00;99.90;;;;;;4994612;28;20026;-82
2021/07/08 05:18:50;;;;;;;4.50;3.00;;;17.00;99.90;;;;;;4992853;28;20034;-77
2021/07/08 05:21:19;;;;;;;5.18;2.88;;;17.00;99.90;;;;;;4973607;28;20570;-77
2021/07/08 05:23:45;;;;;;;5.97;2.45;;;16.90;99.90;;;;;;4976292;28;20053;-83
2021/07/08 05:26:11;;;;;;;4.43;2.67;;;16.90;99.90;;;;;;4977069;28;20022;-83
2021/07/08 05:28:36;;;;;;;4.80;3.40;;;16.90;99.90;;;;;;4977798;28;20026;-82
2021/07/08 05:31:02;;;;;;;6.03;3.20;;;16.90;99.90;;;;;;4993515;28;20026;-82
2021/07/08 05:33:28;;;;;;;5.05;3.10;;;16.90;99.90;;;;;;4993534;28;20030;-81
2021/07/08 05:35:53;;;;;;;4.75;3.00;;;16.80;99.90;;;;;;4961720;28;20556;-81
2021/07/08 05:38:19;;;;;;;5.68;2.67;;;16.80;99.90;;;;;;4991053;28;20066;-84
2021/07/08 05:40:44;;;;;;;5.13;2.90;;;16.70;99.90;;;;;;4966682;28;20030;-83
2021/07/08 05:43:10;;;;;;;8.10;3.10;;;16.60;99.90;;;;;;4988706;28;20035;-81
2021/07/08 05:45:37;;;;;;;6.50;3.40;;;16.60;99.90;;;;;;4970547;28;20026;-81
2021/07/08 05:48:03;;;;;;;7.25;3.47;;;16.60;99.90;;;;;;4969630;28;20030;-83
2021/07/08 05:50:29;;;;;;;6.80;3.60;;;16.60;99.90;;;;;;4987614;28;20429;-79
2021/07/08 05:52:54;;;;;;;5.85;3.08;;;16.60;99.90;;;;;;4993292;28;20028;-81
2021/07/08 05:55:20;;;;;;;7.03;3.40;;;16.60;99.90;;;;;;4993323;28;20023;-84
2021/07/08 05:57:48;;;;;;;7.57;3.53;;;16.70;99.90;;;;;;4991487;28;20027;-81
2021/07/08 06:00:16;;;;;;;5.53;3.22;;;16.60;99.90;;;;;;4993470;28;20022;-81
2021/07/08 06:02:42;;;;;;;7.03;3.28;;;16.60;99.90;;;;;;4993026;28;20022;-81
2021/07/08 06:05:08;;;;;;;6.78;3.65;;;16.60;99.90;;;;;;4993357;28;20018;-81
2021/07/08 06:07:33;;;;;;;4.65;2.75;;;16.70;99.90;;;;;;4992315;28;20489;-76
2021/07/08 06:09:59;;;;;;;6.53;4.18;;;16.60;99.90;;;;;;4992700;28;20026;-80
2021/07/08 06:12:25;;;;;;;5.68;3.17;;;16.70;99.90;;;;;;4999775;28;20033;-80
2021/07/08 06:14:51;;;;;;;7.35;3.50;;;16.70;99.90;;;;;;4996084;28;20030;-80
2021/07/08 06:17:17;;;;;;;6.72;3.20;;;16.80;99.90;;;;;;4993042;28;20028;-80
2021/07/08 06:19:42;;;;;;;5.70;3.67;;;16.80;99.90;;;;;;4992784;28;20317;-78
2021/07/08 06:22:08;;;;;;;8.30;4.53;;;16.90;99.90;;;;;;4970140;28;20444;-80
2021/07/08 06:24:33;;;;;;;5.35;3.08;;;17.00;99.90;;;;;;4993574;28;20089;-80
2021/07/08 06:26:59;;;;;;;4.93;3.28;;;17.00;99.90;;;;;;4995261;28;20089;-80
2021/07/08 06:29:25;;;;;;;5.15;2.90;;;17.10;99.90;;;;;;4997482;28;20018;-81
2021/07/08 06:31:50;;;;;;;8.07;3.60;;;17.10;99.90;;;;;;5006974;28;20097;-79
2021/07/08 06:34:16;;;;;;;7.15;2.78;;;17.20;99.90;;;;;;4988094;28;20158;-80
2021/07/08 06:36:42;;;;;;;6.03;3.30;;;17.30;99.90;;;;;;4997111;28;20069;-81
2021/07/08 06:39:07;;;;;;;5.32;3.25;;;17.30;99.90;;;;;;4977942;28;20053;-78
2021/07/08 06:41:33;;;;;;;5.07;3.00;;;17.40;99.90;;;;;;4981564;28;20019;-81
2021/07/08 06:43:59;;;;;;;6.90;3.20;;;17.40;99.90;;;;;;4995502;28;20533;-79
2021/07/08 06:46:29;;;;;;;4.93;2.97;;;17.40;99.90;;;;;;4996936;28;20145;-80
2021/07/08 06:48:56;;;;;;;5.70;3.10;;;17.40;99.90;;;;;;4993184;28;20042;-81
2021/07/08 06:51:21;;;;;;;6.75;3.30;;;17.50;99.90;;;;;;4992115;28;20078;-81
2021/07/08 06:53:47;;;;;;;5.25;3.20;;;17.40;99.90;;;;;;4992673;28;20735;-81
2021/07/08 06:56:13;;;;;;;5.90;3.20;;;17.40;99.90;;;;;;4991114;28;20029;-81
2021/07/08 06:58:38;;;;;;;5.55;3.33;;;17.40;99.90;;;;;;4973308;28;20492;-81
2021/07/08 07:01:04;;;;;;;8.07;3.25;;;17.40;99.90;;;;;;4994346;28;20061;-86
2021/07/08 07:03:34;;;;;;;8.23;3.22;;;17.40;99.90;;;;;;4971473;28;20018;-86
2021/07/08 07:06:00;;;;;;;4.90;2.90;;;17.40;99.90;;;;;;4971127;28;20034;-86
2021/07/08 07:08:26;;;;;;;6.00;3.15;;;17.50;99.90;;;;;;4991858;28;20018;-86
2021/07/08 07:10:51;;;;;;;5.20;2.78;;;17.50;99.90;;;;;;4992302;28;21226;-86
2021/07/08 07:13:17;;;;;;;5.28;2.83;;;17.60;99.90;;;;;;4986312;28;20061;-87
2021/07/08 07:15:43;;;;;;;6.72;3.05;;;17.70;99.90;;;;;;4973987;28;20117;-86
2021/07/08 07:18:08;;;;;;;4.28;2.30;;;17.70;99.90;;;;;;4973520;28;20026;-87
2021/07/08 07:20:34;;;;;;;4.25;2.45;;;17.80;99.90;;;;;;4992230;28;20531;-86
2021/07/08 07:23:00;;;;;;;4.30;2.40;;;17.80;99.90;;;;;;4978405;28;20938;-86
2021/07/08 07:25:27;;;;;;;3.17;1.98;;;17.90;99.90;;;;;;4975350;28;20025;-86
2021/07/08 07:27:55;;;;;;;5.70;2.70;;;18.00;99.90;;;;;;4975182;28;20277;-86
2021/07/08 07:30:23;;;;;;;4.45;2.60;;;18.00;99.90;;;;;;4972176;28;20044;-86
2021/07/08 07:32:50;;;;;;;4.38;2.50;;;18.00;99.90;;;;;;4973688;28;20093;-86
2021/07/08 07:35:17;;;;;;;7.18;2.47;;;18.00;99.90;;;;;;4971339;28;20535;-86
2021/07/08 07:37:42;;;;;;;4.82;2.67;;;18.10;99.90;;;;;;4976331;28;20147;-85
2021/07/08 07:40:09;;;;;;;3.35;2.13;;;18.10;99.90;;;;;;4972308;28;20496;-87
2021/07/08 07:42:36;;;;;;;4.43;2.40;;;18.20;99.90;;;;;;4991005;28;20374;-86
2021/07/08 07:45:07;;;;;;;4.80;2.75;;;18.20;99.90;;;;;;4991807;28;20022;-85
2021/07/08 07:47:32;;;;;;;3.90;2.47;;;18.20;99.90;;;;;;4989283;28;20041;-85
2021/07/08 07:49:59;;;;;;;5.97;2.75;;;18.20;99.90;;;;;;4990937;28;20419;-85
2021/07/08 07:52:25;;;;;;;5.68;2.45;;;18.30;99.90;;;;;;4972783;28;20038;-87
2021/07/08 07:54:51;;;;;;;6.15;2.97;;;18.40;99.90;;;;;;4973082;28;20087;-86
2021/07/08 07:57:16;;;;;;;5.18;2.80;;;18.40;99.90;;;;;;4990817;28;20026;-86
2021/07/08 07:59:42;;;;;;;6.22;3.30;;;18.50;99.90;;;;;;4981468;28;20029;-87
2021/07/08 08:02:12;;;;;;;6.22;3.17;;;18.50;99.90;;;;;;4971178;28;20034;-87
2021/07/08 08:05:07;;;;;;;5.22;3.22;;;18.50;99.90;;;;;;4969630;28;20113;-87
2021/07/08 08:10:20;;;;;;;6.47;3.60;;;18.50;99.90;;;;;;4992830;28;20093;-87
2021/07/08 08:12:48;;;;;;;6.25;3.72;;;18.40;99.90;;;;;;4993329;28;20034;-88
2021/07/08 08:15:15;;;;;;;5.68;3.63;;;18.30;99.90;;;;;;4975746;28;20022;-88
2021/07/08 08:17:41;;;;;;;6.75;3.75;;;18.30;99.90;;;;;;4992362;28;20030;-87
2021/07/08 08:20:09;;;;;;;7.00;3.38;;;18.30;99.90;;;;;;4975275;28;20026;-89
2021/07/08 08:22:37;;;;;;;5.97;4.00;;;18.40;99.90;;;;;;4975238;28;20027;-88
2021/07/08 08:25:06;;;;;;;6.03;3.63;;;18.50;99.90;;;;;;4986813;28;20023;-88
2021/07/08 08:27:31;;;;;;;8.30;3.30;;;18.70;99.90;;;;;;4992632;28;20018;-88
2021/07/08 08:29:58;;;;;;;7.22;3.67;;;18.90;99.90;;;;;;4974794;28;20564;-87
2021/07/08 08:32:24;;;;;;;5.40;3.35;;;19.10;99.90;;;;;;4975180;28;20030;-88
2021/07/08 08:34:50;;;;;;;5.40;3.40;;;19.20;99.90;;;;;;4971072;28;20037;-88
2021/07/08 08:37:16;;;;;;;6.07;3.40;;;19.40;99.90;;;;;;4962000;28;20053;-88
2021/07/08 08:39:41;;;;;;;5.97;3.20;;;19.60;99.90;;;;;;4991810;28;20018;-88
2021/07/08 08:42:09;;;;;;;5.53;3.17;;;19.70;99.90;;;;;;4974998;28;20408;-88
2021/07/08 08:44:35;;;;;;;6.20;3.10;;;19.80;99.90;;;;;;4989362;28;20050;-87
2021/07/08 08:47:02;;;;;;;7.53;2.60;;;19.80;99.90;;;;;;4974535;28;20424;-87
2021/07/08 08:49:27;;;;;;;5.40;2.90;;;19.70;99.90;;;;;;4973549;28;20038;-87
2021/07/08 08:51:54;;;;;;;5.22;2.65;;;19.70;99.90;;;;;;4953247;28;20112;-86
2021/07/08 08:54:19;;;;;;;5.65;2.17;;;19.80;99.90;;;;;;4973422;28;20030;-88
2021/07/08 08:56:46;;;;;;;4.80;2.15;;;20.00;99.90;;;;;;4974275;28;20034;-87
2021/07/08 08:59:11;;;;;;;5.13;2.38;;;20.20;99.90;;;;;;4973180;28;20432;-87
2021/07/08 09:01:37;;;;;;;4.35;2.13;;;20.20;99.90;;;;;;4970090;28;20038;-87
2021/07/08 09:04:04;;;;;;;4.40;2.80;;;20.20;99.90;;;;;;4963489;28;20031;-87
2021/07/08 09:06:36;;;;;;;13.07;3.33;;;20.20;99.90;;;;;;4974052;28;20113;-86
2021/07/08 09:09:11;;;;;;;4.20;2.20;;;20.30;99.90;;;;;;4974970;28;20018;-87
2021/07/08 09:11:38;;;;;;;4.50;2.47;;;20.60;99.90;;;;;;4963130;28;20034;-88
2021/07/08 09:14:05;;;;;;;5.68;2.50;;;20.60;99.90;;;;;;4975921;28;20034;-87
2021/07/08 09:16:39;;;;;;;5.35;2.55;;;20.60;99.90;;;;;;4989995;28;20022;-87
2021/07/08 09:19:09;;;;;;;4.50;2.70;;;20.70;99.90;;;;;;4985197;28;20030;-88
2021/07/08 09:21:43;;;;;;;5.93;3.83;;;20.80;99.90;;;;;;4991160;28;20066;-89
2021/07/08 09:24:25;;;;;;;6.95;2.40;;;20.90;99.90;;;;;;4973088;28;20030;-88
2021/07/08 09:27:09;;;;;;;4.40;2.58;;;20.80;99.90;;;;;;4983751;28;20027;-88
2021/07/08 09:29:38;;;;;;;5.40;2.45;;;20.90;99.90;;;;;;4974514;28;20030;-89
2021/07/08 09:32:13;;;;;;;4.70;2.65;;;21.00;99.90;;;;;;4974070;28;20595;-89
2021/07/08 09:34:41;;;;;;;3.97;2.50;;;21.10;99.90;;;;;;4974455;28;20032;-88
2021/07/08 09:37:17;;;;;;;5.22;2.83;;;21.00;99.90;;;;;;4975634;28;20448;-88
2021/07/08 09:39:47;;;;;;;7.10;2.70;;;20.90;99.90;;;;;;4984913;28;20062;-89
2021/07/08 09:42:33;;;;;;;5.65;3.30;;;20.70;99.90;;;;;;4955191;28;20027;-89
2021/07/08 09:45:10;;;;;;;6.03;3.00;;;20.70;99.90;;;;;;4973769;28;20038;-88
2021/07/08 09:47:41;;;;;;;3.20;2.08;;;20.60;99.90;;;;;;4991426;28;20036;-88
2021/07/08 09:50:28;;;;;;;4.30;2.33;;;20.60;99.90;;;;;;4973567;28;20550;-88
2021/07/08 09:53:07;;;;;;;5.28;2.42;;;20.60;99.90;;;;;;4966494;28;20568;-88
2021/07/08 09:56:03;;;;;;;4.07;2.10;;;20.70;99.90;;;;;;4991171;28;20022;-88
2021/07/08 09:58:30;;;;;;;3.38;1.73;;;20.80;99.90;;;;;;4974958;28;20101;-88
2021/07/08 10:01:10;;;;;;;3.22;1.90;;;20.80;99.90;;;;;;4977530;28;20034;-88
2021/07/08 10:03:37;;;;;;;5.47;2.47;;;20.80;99.90;;;;;;4970308;28;20491;-88
2021/07/08 10:06:03;;;;;;;6.47;2.38;;;20.80;99.90;;;;;;4978458;28;20039;-88
2021/07/08 10:08:29;;;;;;;5.32;2.47;;;20.90;99.90;;;;;;4996219;28;20023;-88
2021/07/08 10:10:55;;;;;;;4.05;1.70;;;21.00;99.90;;;;;;4970400;28;20030;-87
2021/07/08 10:13:23;;;;;;;5.55;1.77;;;20.90;99.90;;;;;;4975543;28;20393;-88
2021/07/08 10:15:50;;;;;;;3.53;1.77;;;21.00;99.90;;;;;;4975679;28;20065;-87
2021/07/08 10:18:16;;;;;;;4.40;2.00;;;21.10;99.90;;;;;;4981323;28;20062;-88
2021/07/08 10:20:43;;;;;;;3.25;1.45;;;21.30;99.90;;;;;;4994626;28;20061;-88
2021/07/08 10:23:11;;;;;;;2.40;1.00;;;21.40;99.90;;;;;;4994765;28;20076;-88
2021/07/08 10:25:37;;;;;;;2.85;1.20;;;21.30;99.90;;;;;;4984067;28;20022;-88
2021/07/08 10:28:04;;;;;;;2.13;1.10;;;21.60;99.90;;;;;;4981581;28;20031;-88
2021/07/08 10:30:31;;;;;;;2.67;1.20;;;21.60;99.90;;;;;;4979250;28;20062;-88
2021/07/08 10:32:58;;;;;;;2.53;1.20;;;21.70;99.90;;;;;;4987562;28;20037;-88
2021/07/08 10:35:46;;;;;;;3.08;1.40;;;21.50;99.90;;;;;;4982754;28;20046;-88
2021/07/08 10:38:44;;;;;;;4.82;1.00;;;21.30;99.90;;;;;;4984378;28;20031;-88
2021/07/08 10:41:09;;;;;;;1.77;0.95;;;21.40;99.90;;;;;;4925802;28;20354;-87
2021/07/08 10:43:37;;;;;;;1.88;1.08;;;21.40;99.90;;;;;;4979179;28;20037;-86
2021/07/08 10:46:11;;;;;;;3.28;1.00;;;21.40;99.90;;;;;;4994315;28;20022;-88
2021/07/08 10:48:44;;;;;;;3.83;1.55;;;21.50;99.90;;;;;;4992878;28;20061;-87
2021/07/08 10:51:28;;;;;;;2.40;1.30;;;21.50;99.90;;;;;;4992470;28;20030;-87
2021/07/08 10:53:55;;;;;;;2.33;0.93;;;21.30;99.90;;;;;;4994409;28;20058;-87
2021/07/08 10:56:31;;;;;;;3.45;0.85;;;21.40;99.90;;;;;;4993145;28;20034;-87
2021/07/08 10:58:57;;;;;;;1.55;0.70;;;21.30;99.90;;;;;;4992655;28;20034;-87
2021/07/08 11:01:22;;;;;;;2.25;0.70;;;21.30;99.90;;;;;;4987518;28;20101;-87
2021/07/08 11:03:50;;;;;;;2.13;0.85;;;21.20;99.90;;;;;;4977100;28;20343;-87
2021/07/08 11:06:24;;;;;;;1.45;0.70;;;21.30;99.90;;;;;;4994485;28;20460;-86
2021/07/08 11:08:51;;;;;;;2.03;0.70;;;21.20;99.90;;;;;;4992520;28;20520;-87
2021/07/08 11:11:23;;;;;;;1.73;0.82;;;21.20;99.90;;;;;;4975902;28;20542;-87
2021/07/08 11:13:52;;;;;;;;;;;21.20;99.90;;;;;;4976231;28;20082;-86
2021/07/08 11:16:47;;;;;;;2.03;0.80;;;21.30;99.90;;;;;;4970792;28;19968;-87
2021/07/08 11:19:19;;;;;;;1.58;0.73;;;21.40;99.90;;;;;;4972489;28;20483;-87
2021/07/08 11:21:55;;;;;;;;;;;21.60;99.90;;;;;;4991868;28;20022;-86
2021/07/08 11:24:23;;;;;;;1.65;0.82;;;21.60;99.90;;;;;;4984432;28;20350;-87
2021/07/08 11:26:53;;;;;;;1.75;0.90;;;21.60;99.90;;;;;;4975342;28;20062;-87
2021/07/08 11:29:33;;;;;;;2.17;1.00;;;21.70;99.90;;;;;;4992337;28;20030;-87
2021/07/08 11:31:58;;;;;;;2.55;0.80;;;21.80;99.90;;;;;;4990697;28;20026;-87
2021/07/08 11:34:25;;;;;;;1.92;1.00;;;21.70;99.90;;;;;;4992335;28;20032;-86
2021/07/08 11:36:56;;;;;;;1.52;0.80;;;21.80;99.90;;;;;;4993191;28;20026;-86
2021/07/08 11:39:26;;;;;;;2.42;0.90;;;21.50;99.90;;;;;;4980796;28;20489;-86
2021/07/08 11:41:54;;;;;;;3.58;1.10;;;21.50;99.90;;;;;;4979589;28;20031;-85
2021/07/08 11:44:30;;;;;;;1.65;0.77;;;21.60;99.90;;;;;;4993097;28;20512;-87
2021/07/08 11:46:59;;;;;;;2.00;0.85;;;21.40;99.90;;;;;;4990855;28;20033;-86
2021/07/08 11:49:26;;;;;;;1.98;0.80;;;21.40;99.90;;;;;;4989036;28;20166;-86
2021/07/08 11:51:52;;;;;;;4.35;0.85;;;21.40;99.90;;;;;;4995210;28;20164;-87
2021/07/08 11:54:18;;;;;;;3.28;0.93;;;21.50;99.90;;;;;;4973636;28;20054;-86
2021/07/08 11:56:43;;;;;;;1.88;0.77;;;21.60;99.90;;;;;;4992883;28;20039;-86
2021/07/08 11:59:09;;;;;;;3.08;0.82;;;21.70;99.90;;;;;;4990319;28;20615;-86
2021/07/08 12:01:40;;;;;;;2.95;0.77;;;21.60;99.90;;;;;;4972171;28;20034;-87
2021/07/08 12:04:05;;;;;;;1.45;0.85;;;21.80;99.90;;;;;;4989806;28;20109;-87
2021/07/08 12:06:32;;;;;;;3.20;0.98;;;21.80;99.90;;;;;;4987898;28;20156;-88
2021/07/08 12:09:05;;;;;;;4.03;1.17;;;21.90;99.90;;;;;;4973185;28;20133;-86
2021/07/08 12:11:38;;;;;;;2.30;0.93;;;21.90;99.90;;;;;;4969421;28;20166;-87
2021/07/08 12:14:07;;;;;;;2.05;0.95;;;22.00;99.90;;;;;;4985944;28;20097;-88
2021/07/08 12:16:42;;;;;;;4.13;1.35;;;22.10;99.90;;;;;;4987165;28;20038;-88
2021/07/08 12:19:14;;;;;;;4.03;1.20;;;22.10;99.90;;;;;;4979041;28;20019;-87
2021/07/08 12:21:43;;;;;;;3.88;1.52;;;22.20;99.90;;;;;;4970826;28;20110;-87
2021/07/08 12:24:24;;;;;;;4.05;1.40;;;22.10;99.90;;;;;;4987116;28;20029;-86
2021/07/08 12:26:53;;;;;;;4.60;1.10;;;22.00;99.90;;;;;;4986358;28;20027;-87
2021/07/08 12:29:25;;;;;;;2.45;1.20;;;22.00;99.90;;;;;;4972415;28;20026;-87
2021/07/08 12:31:57;;;;;;;3.67;1.23;;;22.00;99.90;;;;;;4966724;28;20120;-87
2021/07/08 12:34:55;;;;;;;2.50;1.17;;;22.00;99.90;;;;;;4972656;28;20045;-86
2021/07/08 12:37:23;;;;;;;2.60;1.00;;;22.20;99.90;;;;;;4982252;28;20041;-86
2021/07/08 12:39:59;;;;;;;2.65;1.08;;;22.30;99.90;;;;;;4988076;28;20257;-87
2021/07/08 12:42:27;;;;;;;2.65;1.15;;;22.40;99.90;;;;;;4985470;28;20069;-86
2021/07/08 12:44:58;;;;;;;1.80;0.90;;;22.60;99.90;;;;;;4969884;28;20034;-85
2021/07/08 12:47:24;;;;;;;2.53;0.90;;;22.70;99.90;;;;;;4988484;28;20104;-85
2021/07/08 12:49:51;;;;;;;3.33;1.23;;;22.80;99.90;;;;;;4982123;28;20557;-85
2021/07/08 12:52:19;;;;;;;2.28;1.10;;;22.70;99.90;;;;;;4972280;28;20038;-85
2021/07/08 12:54:45;;;;;;;2.60;1.08;;;22.60;99.90;;;;;;4973338;28;20034;-86